»·PEaware :: N4131B KMMH-KRDD

N4131B :: KMMH-KRDD

FLIGHT INFORMATION

Flight Status: Arrived
Operator: Privately registered:
United States
More flights under this callsign
Pilot: Christian B. (29430)
Aircraft: BEECH AIRCRAFT SUPER KING AIR 350
(B350)
More flights by this aircraft type
Origin: KMMH Mammoth Yosemite
United States
Destination: KRDD Redding Mun
United States
More flights between these airports :: More routes between these airports
Route: +NIKOL1 NIKOL CARVV
File this flight plan on PilotEdge
Remarks: CLMB VIA NIKOL ODP
Altitude:
(Current/Filed)
24,000ft
Speed:
(Current/Filed)
300kts
Departed: 22-May-20 08:35 PM
Arrived: 22-May-20 10:00 PM
Distance/Time
Traveled:
237nm/1:25
Distance/Time
To Go:
Arrived

Flight Plot

Page will automatically refresh every two minutes.


Map Options




Map Legend


Flown Route
Filed Route
Departure Airport
Arrival Airport
Navaid (VOR, NDB)
Fix

Horizontal Profiles

Position Reports

Time Latitude Longitude Heading Altitude Ground
Speed
22-May-20 20:02 37.627234 -118.845086 191 7124ft 0kts
22-May-20 20:03 37.627234 -118.845086 191 7124ft 0kts
22-May-20 20:04 37.627234 -118.845086 191 7124ft 0kts
22-May-20 20:05 37.627234 -118.845086 191 7124ft 0kts
22-May-20 20:06 37.627234 -118.845086 191 7124ft 0kts
22-May-20 20:07 37.627234 -118.845086 191 7124ft 0kts
22-May-20 20:08 37.627216 -118.845092 190 7124ft 0kts
22-May-20 20:09 37.627216 -118.845092 190 7124ft 0kts
22-May-20 20:10 37.627216 -118.845092 190 7124ft 0kts
22-May-20 20:11 37.627216 -118.845092 190 7124ft 0kts
22-May-20 20:12 37.627216 -118.845092 190 7124ft 0kts
22-May-20 20:13 37.627216 -118.845092 190 7124ft 0kts
22-May-20 20:14 37.627216 -118.845092 190 7124ft 0kts
22-May-20 20:15 37.627216 -118.845092 190 7124ft 0kts
22-May-20 20:16 37.627216 -118.845092 190 7124ft 0kts
22-May-20 20:17 37.627216 -118.845092 190 7124ft 0kts
22-May-20 20:18 37.627216 -118.845092 190 7124ft 0kts
22-May-20 20:19 37.627216 -118.845092 190 7124ft 0kts
22-May-20 20:20 37.627216 -118.845092 190 7124ft 0kts
22-May-20 20:21 37.627216 -118.845092 190 7124ft 0kts
22-May-20 20:22 37.627216 -118.845092 190 7124ft 0kts
22-May-20 20:23 37.627216 -118.845092 190 7124ft 0kts
22-May-20 20:24 37.627216 -118.845092 190 7124ft 0kts
22-May-20 20:25 37.627216 -118.845092 190 7124ft 0kts
22-May-20 20:26 37.627216 -118.845092 190 7124ft 0kts
22-May-20 20:27 37.627216 -118.845092 190 7124ft 0kts
22-May-20 20:28 37.626432 -118.842591 107 7116ft 12kts
22-May-20 20:29 37.624783 -118.838181 109 7104ft 15kts
22-May-20 20:30 37.623213 -118.832448 108 7090ft 20kts
22-May-20 20:31 37.621747 -118.827191 142 7068ft 11kts
22-May-20 20:32 37.621620 -118.827114 162 7067ft 0kts
22-May-20 20:33 37.621189 -118.828310 289 7071ft 17kts
22-May-20 20:34 37.629798 -118.861049 290 7894ft 141kts
22-May-20 20:35 37.648945 -118.905831 338 9604ft 158kts
22-May-20 20:36 37.680321 -118.874469 65 11520ft 173kts
22-May-20 20:37 37.695480 -118.814786 65 13064ft 191kts
22-May-20 20:38 37.708439 -118.748023 65 14665ft 200kts
22-May-20 20:39 37.721485 -118.679022 67 16212ft 208kts
22-May-20 20:40 37.734961 -118.606485 61 17599ft 213kts
22-May-20 20:41 37.767632 -118.563572 329 19052ft 159kts
22-May-20 20:42 37.804375 -118.590958 327 20657ft 153kts
22-May-20 20:43 37.842267 -118.614304 329 22229ft 151kts
22-May-20 20:44 37.880180 -118.635926 329 23835ft 150kts
22-May-20 20:45 37.922957 -118.658819 330 24057ft 180kts
22-May-20 20:46 37.971189 -118.685708 315 24030ft 194kts
22-May-20 20:47 38.005527 -118.740103 309 24047ft 204kts
22-May-20 20:48 38.042761 -118.796589 309 24048ft 215kts
22-May-20 20:49 38.082004 -118.856230 312 24043ft 227kts
22-May-20 20:50 38.123731 -118.919714 313 24053ft 241kts
22-May-20 20:51 38.167990 -118.987188 314 24050ft 254kts
22-May-20 20:52 38.214469 -119.058190 314 24054ft 270kts
22-May-20 20:53 38.263398 -119.133117 314 24051ft 281kts
22-May-20 20:54 38.313835 -119.210546 314 24049ft 286kts
22-May-20 20:55 38.364806 -119.288992 314 24048ft 289kts
22-May-20 20:56 38.416036 -119.368025 314 24047ft 290kts
22-May-20 20:57 38.467391 -119.447451 314 24046ft 291kts
22-May-20 20:58 38.518605 -119.526850 314 24046ft 291kts
22-May-20 20:59 38.569991 -119.606716 314 24054ft 290kts
22-May-20 21:00 38.621126 -119.686388 314 24057ft 291kts
22-May-20 21:01 38.672393 -119.766463 313 24054ft 292kts
22-May-20 21:02 38.723751 -119.846883 313 24053ft 292kts
22-May-20 21:03 38.775147 -119.927565 313 24061ft 292kts
22-May-20 21:04 38.826424 -120.008263 313 24070ft 292kts
22-May-20 21:05 38.877716 -120.089191 313 24070ft 292kts
22-May-20 21:06 38.928680 -120.169801 313 24070ft 291kts
22-May-20 21:07 38.979313 -120.250090 313 24068ft 287kts
22-May-20 21:08 39.032627 -120.323741 319 24064ft 279kts
22-May-20 21:09 39.087035 -120.393900 318 24066ft 275kts
22-May-20 21:10 39.140732 -120.463484 318 24077ft 274kts
22-May-20 21:11 39.194445 -120.533255 318 24075ft 274kts
22-May-20 21:12 39.247980 -120.602972 318 24073ft 274kts
22-May-20 21:14 39.301733 -120.673116 317 24087ft 275kts
22-May-20 21:15 39.355443 -120.743380 317 24082ft 276kts
22-May-20 21:16 39.409581 -120.814366 317 24062ft 277kts
22-May-20 21:17 39.463771 -120.885575 317 24042ft 278kts
22-May-20 21:18 39.517878 -120.956859 317 24022ft 278kts
22-May-20 21:19 39.571836 -121.028092 316 24012ft 278kts
22-May-20 21:20 39.626358 -121.100263 316 23992ft 281kts
22-May-20 21:21 39.680522 -121.172131 315 22911ft 275kts
22-May-20 21:22 39.733126 -121.242108 315 21390ft 268kts
22-May-20 21:23 39.784564 -121.310677 315 19871ft 263kts
22-May-20 21:24 39.835074 -121.378158 315 18356ft 259kts
22-May-20 21:25 39.883649 -121.445272 313 16859ft 257kts
22-May-20 21:26 39.931874 -121.514194 313 15982ft 257kts
22-May-20 21:27 39.982257 -121.585952 313 15980ft 277kts
22-May-20 21:28 40.035120 -121.661128 313 15981ft 285kts
22-May-20 21:29 40.089124 -121.737897 313 15981ft 288kts
22-May-20 21:29 40.134464 -121.802325 313 15988ft 290kts
22-May-20 21:31 40.198021 -121.892625 313 15996ft 290kts
22-May-20 21:32 40.252938 -121.970641 313 15999ft 291kts
22-May-20 21:32 40.298466 -122.035312 313 15999ft 291kts
22-May-20 21:34 40.362388 -122.126103 313 15998ft 291kts
22-May-20 21:34 40.408316 -122.191332 313 15998ft 291kts
22-May-20 21:35 40.463254 -122.269349 313 15998ft 291kts
22-May-20 21:36 40.518135 -122.347282 313 15998ft 291kts
22-May-20 21:37 40.573077 -122.425294 314 15998ft 291kts
22-May-20 21:38 40.627740 -122.502813 314 15048ft 287kts
22-May-20 21:39 40.681955 -122.579227 314 13542ft 284kts
22-May-20 21:40 40.736052 -122.654829 313 12043ft 284kts
22-May-20 21:41 40.790213 -122.729815 318 10990ft 279kts
22-May-20 21:42 40.863939 -122.747735 353 10997ft 271kts
22-May-20 21:43 40.938533 -122.758380 353 10998ft 269kts
22-May-20 21:44 41.012671 -122.768927 353 11036ft 266kts
22-May-20 21:45 41.085557 -122.772656 28 11083ft 264kts
22-May-20 21:46 41.075376 -122.698232 168 11122ft 272kts
22-May-20 21:47 40.998665 -122.679876 160 10317ft 296kts
22-May-20 21:48 40.930369 -122.618814 140 8965ft 280kts
22-May-20 21:49 40.890115 -122.538772 119 8855ft 267kts
22-May-20 21:50 40.851756 -122.452130 119 8472ft 279kts
22-May-20 21:51 40.815462 -122.370187 119 6927ft 245kts
22-May-20 21:52 40.779113 -122.298720 157 5466ft 227kts
22-May-20 21:53 40.721068 -122.294578 180 4779ft 203kts
22-May-20 21:54 40.665710 -122.294698 180 3784ft 200kts
22-May-20 21:55 40.616976 -122.294881 180 2721ft 140kts
22-May-20 21:56 40.578718 -122.294719 180 1859ft 139kts
22-May-20 21:57 40.542208 -122.294779 179 1011ft 120kts
22-May-20 21:58 40.512828 -122.294857 181 499ft 41kts
22-May-20 21:59 40.508289 -122.295895 301 497ft 0kts
22-May-20 22:00 40.508125 -122.297501 226 497ft 14kts
22-May-20 22:01 40.508581 -122.299010 89 497ft 0kts
22-May-20 22:02 40.508581 -122.299010 89 497ft 0kts
22-May-20 22:03 40.508581 -122.299010 89 497ft 0kts
22-May-20 22:04 40.508581 -122.299010 89 497ft 0kts
22-May-20 22:05 40.508581 -122.299010 89 497ft 0kts
22-May-20 22:06 40.508581 -122.299010 89 497ft 0kts
22-May-20 22:07 40.508581 -122.299010 89 497ft 0kts
22-May-20 22:08 40.508581 -122.299010 89 497ft 0kts
22-May-20 22:09 40.508581 -122.299010 89 497ft 0kts
22-May-20 22:10 40.508581 -122.299010 89 497ft 0kts
22-May-20 22:11 40.508581 -122.299010 89 497ft 0kts
22-May-20 22:12 40.508581 -122.299010 89 497ft 0kts
22-May-20 22:13 40.508581 -122.299010 89 497ft 0kts

Navigation Log

Ident Type
Flight plan parsing failed, navigation log unavailable